sensor_id;sensor_type;location;lat;lon;timestamp;P1;durP1;ratioP1;P2;durP2;ratioP2
9773;SDS011;4926;42.670;23.316;2022-10-22T00:02:22;24.85;;;17.15;;
9773;SDS011;4926;42.670;23.316;2022-10-22T00:04:52;24.50;;;17.85;;
9773;SDS011;4926;42.670;23.316;2022-10-22T00:07:22;22.67;;;16.35;;
9773;SDS011;4926;42.670;23.316;2022-10-22T00:09:49;23.55;;;16.45;;
9773;SDS011;4926;42.670;23.316;2022-10-22T00:12:16;22.60;;;16.38;;
9773;SDS011;4926;42.670;23.316;2022-10-22T00:14:43;27.35;;;18.02;;
9773;SDS011;4926;42.670;23.316;2022-10-22T00:17:10;23.50;;;17.23;;
9773;SDS011;4926;42.670;23.316;2022-10-22T00:19:43;22.02;;;16.73;;
9773;SDS011;4926;42.670;23.316;2022-10-22T00:22:09;21.48;;;15.93;;
9773;SDS011;4926;42.670;23.316;2022-10-22T00:24:38;24.73;;;16.83;;
9773;SDS011;4926;42.670;23.316;2022-10-22T00:27:05;24.98;;;16.73;;
9773;SDS011;4926;42.670;23.316;2022-10-22T00:29:34;22.25;;;15.93;;
9773;SDS011;4926;42.670;23.316;2022-10-22T00:32:01;21.23;;;15.60;;
9773;SDS011;4926;42.670;23.316;2022-10-22T00:34:31;22.50;;;15.13;;
9773;SDS011;4926;42.670;23.316;2022-10-22T00:36:59;19.80;;;16.10;;
9773;SDS011;4926;42.670;23.316;2022-10-22T00:39:26;20.80;;;15.63;;
9773;SDS011;4926;42.670;23.316;2022-10-22T00:41:56;20.75;;;16.35;;
9773;SDS011;4926;42.670;23.316;2022-10-22T00:47:28;26.55;;;16.52;;
9773;SDS011;4926;42.670;23.316;2022-10-22T00:49:57;20.80;;;16.40;;
9773;SDS011;4926;42.670;23.316;2022-10-22T00:52:27;21.80;;;16.17;;
9773;SDS011;4926;42.670;23.316;2022-10-22T00:54:57;22.40;;;16.70;;
9773;SDS011;4926;42.670;23.316;2022-10-22T00:57:27;24.85;;;17.48;;
9773;SDS011;4926;42.670;23.316;2022-10-22T00:59:54;26.25;;;16.98;;
9773;SDS011;4926;42.670;23.316;2022-10-22T01:02:22;20.98;;;15.32;;
9773;SDS011;4926;42.670;23.316;2022-10-22T01:04:49;24.33;;;16.77;;
9773;SDS011;4926;42.670;23.316;2022-10-22T01:07:16;21.70;;;16.73;;
9773;SDS011;4926;42.670;23.316;2022-10-22T01:09:46;22.50;;;16.02;;
9773;SDS011;4926;42.670;23.316;2022-10-22T01:12:26;17.90;;;14.18;;
9773;SDS011;4926;42.670;23.316;2022-10-22T01:15:06;23.33;;;15.45;;
9773;SDS011;4926;42.670;23.316;2022-10-22T01:17:42;21.58;;;15.10;;
9773;SDS011;4926;42.670;23.316;2022-10-22T01:20:22;20.17;;;15.15;;
9773;SDS011;4926;42.670;23.316;2022-10-22T01:23:19;22.52;;;14.13;;
9773;SDS011;4926;42.670;23.316;2022-10-22T01:26:02;23.23;;;15.30;;
9773;SDS011;4926;42.670;23.316;2022-10-22T01:28:53;19.17;;;14.55;;
9773;SDS011;4926;42.670;23.316;2022-10-22T01:31:26;21.00;;;14.60;;
9773;SDS011;4926;42.670;23.316;2022-10-22T01:33:56;20.67;;;14.13;;
9773;SDS011;4926;42.670;23.316;2022-10-22T01:36:24;20.55;;;15.35;;
9773;SDS011;4926;42.670;23.316;2022-10-22T01:38:55;21.73;;;14.85;;
9773;SDS011;4926;42.670;23.316;2022-10-22T01:41:25;20.08;;;15.30;;
9773;SDS011;4926;42.670;23.316;2022-10-22T01:43:54;19.15;;;14.60;;
9773;SDS011;4926;42.670;23.316;2022-10-22T01:46:24;19.95;;;14.68;;
9773;SDS011;4926;42.670;23.316;2022-10-22T01:48:56;19.55;;;14.85;;
9773;SDS011;4926;42.670;23.316;2022-10-22T01:51:40;20.88;;;15.10;;
9773;SDS011;4926;42.670;23.316;2022-10-22T01:54:17;21.95;;;14.25;;
9773;SDS011;4926;42.670;23.316;2022-10-22T01:56:53;20.45;;;14.23;;
9773;SDS011;4926;42.670;23.316;2022-10-22T01:59:35;21.90;;;14.85;;
9773;SDS011;4926;42.670;23.316;2022-10-22T02:02:12;20.65;;;14.55;;
9773;SDS011;4926;42.670;23.316;2022-10-22T02:04:50;21.63;;;14.38;;
9773;SDS011;4926;42.670;23.316;2022-10-22T02:07:25;19.98;;;14.18;;
9773;SDS011;4926;42.670;23.316;2022-10-22T02:09:57;19.33;;;14.07;;
9773;SDS011;4926;42.670;23.316;2022-10-22T02:12:26;22.00;;;13.98;;
9773;SDS011;4926;42.670;23.316;2022-10-22T02:14:57;17.50;;;13.57;;
9773;SDS011;4926;42.670;23.316;2022-10-22T02:17:28;16.05;;;12.95;;
9773;SDS011;4926;42.670;23.316;2022-10-22T02:20:00;19.55;;;13.48;;
9773;SDS011;4926;42.670;23.316;2022-10-22T02:22:28;19.42;;;14.32;;
9773;SDS011;4926;42.670;23.316;2022-10-22T02:24:55;21.48;;;14.43;;
9773;SDS011;4926;42.670;23.316;2022-10-22T02:27:23;19.25;;;14.10;;
9773;SDS011;4926;42.670;23.316;2022-10-22T02:29:55;21.15;;;15.95;;
9773;SDS011;4926;42.670;23.316;2022-10-22T02:32:29;19.33;;;14.63;;
9773;SDS011;4926;42.670;23.316;2022-10-22T02:35:00;21.67;;;15.63;;
9773;SDS011;4926;42.670;23.316;2022-10-22T02:37:28;25.23;;;17.85;;
9773;SDS011;4926;42.670;23.316;2022-10-22T02:39:56;24.40;;;17.60;;
9773;SDS011;4926;42.670;23.316;2022-10-22T02:42:23;27.17;;;16.58;;
9773;SDS011;4926;42.670;23.316;2022-10-22T02:44:54;26.05;;;17.70;;
9773;SDS011;4926;42.670;23.316;2022-10-22T02:47:22;25.23;;;16.48;;
9773;SDS011;4926;42.670;23.316;2022-10-22T02:49:49;22.38;;;15.85;;
9773;SDS011;4926;42.670;23.316;2022-10-22T02:52:16;23.13;;;15.25;;
9773;SDS011;4926;42.670;23.316;2022-10-22T02:54:42;22.00;;;15.77;;
9773;SDS011;4926;42.670;23.316;2022-10-22T02:57:09;21.95;;;14.93;;
9773;SDS011;4926;42.670;23.316;2022-10-22T02:59:36;20.95;;;15.73;;
9773;SDS011;4926;42.670;23.316;2022-10-22T03:02:02;21.63;;;14.40;;
9773;SDS011;4926;42.670;23.316;2022-10-22T03:04:30;17.88;;;13.93;;
9773;SDS011;4926;42.670;23.316;2022-10-22T03:07:00;21.52;;;14.75;;
9773;SDS011;4926;42.670;23.316;2022-10-22T03:09:27;21.80;;;14.32;;
9773;SDS011;4926;42.670;23.316;2022-10-22T03:11:56;22.67;;;14.88;;
9773;SDS011;4926;42.670;23.316;2022-10-22T03:14:32;20.85;;;15.00;;
9773;SDS011;4926;42.670;23.316;2022-10-22T03:17:02;21.45;;;14.60;;
9773;SDS011;4926;42.670;23.316;2022-10-22T03:19:29;19.92;;;15.35;;
9773;SDS011;4926;42.670;23.316;2022-10-22T03:21:57;16.73;;;13.73;;
9773;SDS011;4926;42.670;23.316;2022-10-22T03:24:27;20.33;;;14.63;;
9773;SDS011;4926;42.670;23.316;2022-10-22T03:26:56;24.27;;;14.82;;
9773;SDS011;4926;42.670;23.316;2022-10-22T03:29:24;21.70;;;15.38;;
9773;SDS011;4926;42.670;23.316;2022-10-22T03:31:57;19.33;;;14.38;;
9773;SDS011;4926;42.670;23.316;2022-10-22T03:34:24;24.58;;;15.35;;
9773;SDS011;4926;42.670;23.316;2022-10-22T03:36:52;20.48;;;14.52;;
9773;SDS011;4926;42.670;23.316;2022-10-22T03:39:19;19.40;;;14.45;;
9773;SDS011;4926;42.670;23.316;2022-10-22T03:41:47;18.92;;;14.55;;
9773;SDS011;4926;42.670;23.316;2022-10-22T03:44:15;19.90;;;14.73;;
9773;SDS011;4926;42.670;23.316;2022-10-22T03:46:43;22.33;;;14.50;;
9773;SDS011;4926;42.670;23.316;2022-10-22T03:49:12;19.27;;;14.05;;
9773;SDS011;4926;42.670;23.316;2022-10-22T03:51:38;18.92;;;14.32;;
9773;SDS011;4926;42.670;23.316;2022-10-22T03:54:06;18.30;;;14.15;;
9773;SDS011;4926;42.670;23.316;2022-10-22T03:56:33;21.70;;;14.73;;
9773;SDS011;4926;42.670;23.316;2022-10-22T03:59:01;21.48;;;14.70;;
9773;SDS011;4926;42.670;23.316;2022-10-22T04:01:33;22.95;;;15.35;;
9773;SDS011;4926;42.670;23.316;2022-10-22T04:04:03;19.08;;;14.25;;
9773;SDS011;4926;42.670;23.316;2022-10-22T04:06:30;22.80;;;14.57;;
9773;SDS011;4926;42.670;23.316;2022-10-22T04:08:56;21.27;;;15.45;;
9773;SDS011;4926;42.670;23.316;2022-10-22T04:11:31;19.75;;;13.82;;
9773;SDS011;4926;42.670;23.316;2022-10-22T04:14:00;18.85;;;14.02;;
9773;SDS011;4926;42.670;23.316;2022-10-22T04:16:26;21.75;;;15.35;;
9773;SDS011;4926;42.670;23.316;2022-10-22T04:18:57;21.92;;;16.23;;
9773;SDS011;4926;42.670;23.316;2022-10-22T04:21:24;23.58;;;15.88;;
9773;SDS011;4926;42.670;23.316;2022-10-22T04:24:00;20.52;;;15.43;;
9773;SDS011;4926;42.670;23.316;2022-10-22T04:26:26;21.55;;;15.95;;
9773;SDS011;4926;42.670;23.316;2022-10-22T04:28:55;25.20;;;17.40;;
9773;SDS011;4926;42.670;23.316;2022-10-22T04:31:22;22.75;;;16.73;;
9773;SDS011;4926;42.670;23.316;2022-10-22T04:33:51;23.23;;;15.75;;
9773;SDS011;4926;42.670;23.316;2022-10-22T04:36:19;23.67;;;16.17;;
9773;SDS011;4926;42.670;23.316;2022-10-22T04:38:51;25.23;;;17.35;;
9773;SDS011;4926;42.670;23.316;2022-10-22T04:41:20;24.98;;;16.55;;
9773;SDS011;4926;42.670;23.316;2022-10-22T04:43:48;21.98;;;15.65;;
9773;SDS011;4926;42.670;23.316;2022-10-22T04:46:17;23.08;;;16.75;;
9773;SDS011;4926;42.670;23.316;2022-10-22T04:48:47;18.88;;;15.10;;
9773;SDS011;4926;42.670;23.316;2022-10-22T04:51:17;22.80;;;15.90;;
9773;SDS011;4926;42.670;23.316;2022-10-22T04:53:44;24.42;;;16.83;;
9773;SDS011;4926;42.670;23.316;2022-10-22T04:56:12;24.33;;;16.50;;
9773;SDS011;4926;42.670;23.316;2022-10-22T04:58:41;25.05;;;16.70;;
9773;SDS011;4926;42.670;23.316;2022-10-22T05:01:09;28.70;;;16.48;;
9773;SDS011;4926;42.670;23.316;2022-10-22T05:03:38;22.20;;;16.67;;
9773;SDS011;4926;42.670;23.316;2022-10-22T05:06:05;24.75;;;17.02;;
9773;SDS011;4926;42.670;23.316;2022-10-22T05:08:39;24.33;;;16.95;;
9773;SDS011;4926;42.670;23.316;2022-10-22T05:11:10;22.23;;;17.15;;
9773;SDS011;4926;42.670;23.316;2022-10-22T05:13:37;25.85;;;17.25;;
9773;SDS011;4926;42.670;23.316;2022-10-22T05:16:07;27.33;;;17.90;;
9773;SDS011;4926;42.670;23.316;2022-10-22T05:18:35;27.38;;;17.85;;
9773;SDS011;4926;42.670;23.316;2022-10-22T05:21:08;27.02;;;18.38;;
9773;SDS011;4926;42.670;23.316;2022-10-22T05:23:36;27.15;;;18.55;;
9773;SDS011;4926;42.670;23.316;2022-10-22T05:26:04;29.00;;;20.45;;
9773;SDS011;4926;42.670;23.316;2022-10-22T05:28:34;28.63;;;19.35;;
9773;SDS011;4926;42.670;23.316;2022-10-22T05:31:04;31.42;;;20.00;;
9773;SDS011;4926;42.670;23.316;2022-10-22T05:33:32;25.50;;;18.27;;
9773;SDS011;4926;42.670;23.316;2022-10-22T05:36:01;26.20;;;18.20;;
9773;SDS011;4926;42.670;23.316;2022-10-22T05:38:32;27.20;;;18.83;;
9773;SDS011;4926;42.670;23.316;2022-10-22T05:40:59;26.90;;;19.13;;
9773;SDS011;4926;42.670;23.316;2022-10-22T05:43:27;27.13;;;18.20;;
9773;SDS011;4926;42.670;23.316;2022-10-22T05:45:54;25.02;;;18.70;;
9773;SDS011;4926;42.670;23.316;2022-10-22T05:48:21;26.15;;;17.90;;
9773;SDS011;4926;42.670;23.316;2022-10-22T05:50:48;29.45;;;19.63;;
9773;SDS011;4926;42.670;23.316;2022-10-22T05:53:17;28.85;;;19.48;;
9773;SDS011;4926;42.670;23.316;2022-10-22T05:55:44;26.17;;;19.48;;
9773;SDS011;4926;42.670;23.316;2022-10-22T05:58:11;31.00;;;21.77;;
9773;SDS011;4926;42.670;23.316;2022-10-22T06:00:38;28.70;;;18.38;;
9773;SDS011;4926;42.670;23.316;2022-10-22T06:03:08;25.83;;;18.40;;
9773;SDS011;4926;42.670;23.316;2022-10-22T06:05:35;25.20;;;18.15;;
9773;SDS011;4926;42.670;23.316;2022-10-22T06:08:03;22.73;;;17.10;;
9773;SDS011;4926;42.670;23.316;2022-10-22T06:10:31;24.80;;;17.20;;
9773;SDS011;4926;42.670;23.316;2022-10-22T06:12:58;22.02;;;16.85;;
9773;SDS011;4926;42.670;23.316;2022-10-22T06:15:32;23.77;;;17.67;;
9773;SDS011;4926;42.670;23.316;2022-10-22T06:17:58;23.27;;;17.52;;
9773;SDS011;4926;42.670;23.316;2022-10-22T06:20:25;28.80;;;19.70;;
9773;SDS011;4926;42.670;23.316;2022-10-22T06:22:55;31.42;;;17.95;;
9773;SDS011;4926;42.670;23.316;2022-10-22T06:25:24;30.20;;;21.02;;
9773;SDS011;4926;42.670;23.316;2022-10-22T06:27:55;30.35;;;18.85;;
9773;SDS011;4926;42.670;23.316;2022-10-22T06:30:24;28.02;;;17.77;;
9773;SDS011;4926;42.670;23.316;2022-10-22T06:33:01;24.25;;;17.08;;
9773;SDS011;4926;42.670;23.316;2022-10-22T06:35:30;29.83;;;20.23;;
9773;SDS011;4926;42.670;23.316;2022-10-22T06:37:57;28.05;;;19.23;;
9773;SDS011;4926;42.670;23.316;2022-10-22T06:40:24;27.42;;;19.05;;
9773;SDS011;4926;42.670;23.316;2022-10-22T06:42:50;26.35;;;18.25;;
9773;SDS011;4926;42.670;23.316;2022-10-22T06:45:21;24.85;;;19.17;;
9773;SDS011;4926;42.670;23.316;2022-10-22T06:47:51;26.25;;;19.48;;
9773;SDS011;4926;42.670;23.316;2022-10-22T06:50:19;27.33;;;20.40;;
9773;SDS011;4926;42.670;23.316;2022-10-22T06:52:46;27.50;;;20.42;;
9773;SDS011;4926;42.670;23.316;2022-10-22T06:55:13;23.95;;;18.23;;
9773;SDS011;4926;42.670;23.316;2022-10-22T06:57:40;25.48;;;19.80;;
9773;SDS011;4926;42.670;23.316;2022-10-22T07:00:07;26.70;;;19.77;;
9773;SDS011;4926;42.670;23.316;2022-10-22T07:02:35;26.05;;;19.85;;
9773;SDS011;4926;42.670;23.316;2022-10-22T07:05:04;24.35;;;18.70;;
9773;SDS011;4926;42.670;23.316;2022-10-22T07:07:32;27.65;;;19.58;;
9773;SDS011;4926;42.670;23.316;2022-10-22T07:09:58;26.95;;;19.58;;
9773;SDS011;4926;42.670;23.316;2022-10-22T07:12:25;29.60;;;19.27;;
9773;SDS011;4926;42.670;23.316;2022-10-22T07:14:52;28.55;;;19.80;;
9773;SDS011;4926;42.670;23.316;2022-10-22T07:17:21;26.83;;;19.17;;
9773;SDS011;4926;42.670;23.316;2022-10-22T07:19:49;26.90;;;19.23;;
9773;SDS011;4926;42.670;23.316;2022-10-22T07:22:16;23.73;;;18.83;;
9773;SDS011;4926;42.670;23.316;2022-10-22T07:24:45;26.90;;;19.90;;
9773;SDS011;4926;42.670;23.316;2022-10-22T07:27:12;26.88;;;20.27;;
9773;SDS011;4926;42.670;23.316;2022-10-22T07:29:38;23.75;;;18.75;;
9773;SDS011;4926;42.670;23.316;2022-10-22T07:32:07;25.27;;;19.40;;
9773;SDS011;4926;42.670;23.316;2022-10-22T07:34:34;24.85;;;18.80;;
9773;SDS011;4926;42.670;23.316;2022-10-22T07:37:04;24.48;;;18.33;;
9773;SDS011;4926;42.670;23.316;2022-10-22T07:39:31;22.80;;;17.77;;
9773;SDS011;4926;42.670;23.316;2022-10-22T07:42:06;22.30;;;17.05;;
9773;SDS011;4926;42.670;23.316;2022-10-22T07:44:33;18.27;;;15.80;;
9773;SDS011;4926;42.670;23.316;2022-10-22T07:47:00;20.23;;;16.40;;
9773;SDS011;4926;42.670;23.316;2022-10-22T07:49:27;22.85;;;16.92;;
9773;SDS011;4926;42.670;23.316;2022-10-22T07:51:53;19.02;;;16.77;;
9773;SDS011;4926;42.670;23.316;2022-10-22T07:54:22;22.58;;;16.85;;
9773;SDS011;4926;42.670;23.316;2022-10-22T07:56:49;22.10;;;16.90;;
9773;SDS011;4926;42.670;23.316;2022-10-22T07:59:18;20.35;;;16.65;;
9773;SDS011;4926;42.670;23.316;2022-10-22T08:01:45;21.83;;;17.90;;
9773;SDS011;4926;42.670;23.316;2022-10-22T08:04:12;24.58;;;16.88;;
9773;SDS011;4926;42.670;23.316;2022-10-22T08:06:38;22.45;;;17.33;;
9773;SDS011;4926;42.670;23.316;2022-10-22T08:09:05;24.27;;;18.38;;
9773;SDS011;4926;42.670;23.316;2022-10-22T08:11:35;24.67;;;17.63;;
9773;SDS011;4926;42.670;23.316;2022-10-22T08:14:03;23.63;;;16.77;;
9773;SDS011;4926;42.670;23.316;2022-10-22T08:16:30;27.85;;;18.35;;
9773;SDS011;4926;42.670;23.316;2022-10-22T08:18:56;21.88;;;16.25;;
9773;SDS011;4926;42.670;23.316;2022-10-22T08:21:23;21.73;;;15.77;;
9773;SDS011;4926;42.670;23.316;2022-10-22T08:23:50;20.52;;;15.82;;
9773;SDS011;4926;42.670;23.316;2022-10-22T08:26:17;23.73;;;19.52;;
9773;SDS011;4926;42.670;23.316;2022-10-22T08:28:45;32.30;;;17.70;;
9773;SDS011;4926;42.670;23.316;2022-10-22T08:31:15;21.45;;;17.30;;
9773;SDS011;4926;42.670;23.316;2022-10-22T08:33:41;20.90;;;16.63;;
9773;SDS011;4926;42.670;23.316;2022-10-22T08:36:08;21.95;;;16.73;;
9773;SDS011;4926;42.670;23.316;2022-10-22T08:38:35;23.02;;;16.30;;
9773;SDS011;4926;42.670;23.316;2022-10-22T08:41:05;21.20;;;15.93;;
9773;SDS011;4926;42.670;23.316;2022-10-22T08:43:37;20.58;;;16.02;;
9773;SDS011;4926;42.670;23.316;2022-10-22T08:46:26;17.17;;;15.10;;
9773;SDS011;4926;42.670;23.316;2022-10-22T08:49:04;20.20;;;15.93;;
9773;SDS011;4926;42.670;23.316;2022-10-22T08:51:37;18.77;;;15.75;;
9773;SDS011;4926;42.670;23.316;2022-10-22T08:57:15;19.05;;;15.25;;
9773;SDS011;4926;42.670;23.316;2022-10-22T08:59:55;18.23;;;15.07;;
9773;SDS011;4926;42.670;23.316;2022-10-22T09:02:31;18.00;;;14.52;;
9773;SDS011;4926;42.670;23.316;2022-10-22T09:05:12;18.08;;;15.13;;
9773;SDS011;4926;42.670;23.316;2022-10-22T09:07:48;20.90;;;14.95;;
9773;SDS011;4926;42.670;23.316;2022-10-22T09:10:16;18.25;;;15.43;;
9773;SDS011;4926;42.670;23.316;2022-10-22T09:12:46;19.02;;;15.98;;
9773;SDS011;4926;42.670;23.316;2022-10-22T09:15:14;20.10;;;17.45;;
9773;SDS011;4926;42.670;23.316;2022-10-22T09:17:51;22.35;;;17.40;;
9773;SDS011;4926;42.670;23.316;2022-10-22T09:20:26;23.08;;;18.13;;
9773;SDS011;4926;42.670;23.316;2022-10-22T09:23:00;22.85;;;18.50;;
9773;SDS011;4926;42.670;23.316;2022-10-22T09:25:38;22.27;;;19.35;;
9773;SDS011;4926;42.670;23.316;2022-10-22T09:28:08;27.85;;;19.25;;
9773;SDS011;4926;42.670;23.316;2022-10-22T09:30:40;25.70;;;19.73;;
9773;SDS011;4926;42.670;23.316;2022-10-22T09:33:11;30.75;;;21.70;;
9773;SDS011;4926;42.670;23.316;2022-10-22T09:35:44;26.95;;;19.60;;
9773;SDS011;4926;42.670;23.316;2022-10-22T09:38:13;23.17;;;18.95;;
9773;SDS011;4926;42.670;23.316;2022-10-22T09:40:45;28.90;;;19.83;;
9773;SDS011;4926;42.670;23.316;2022-10-22T09:43:17;24.02;;;18.40;;
9773;SDS011;4926;42.670;23.316;2022-10-22T09:45:45;22.65;;;18.20;;
9773;SDS011;4926;42.670;23.316;2022-10-22T09:48:26;21.35;;;18.17;;
9773;SDS011;4926;42.670;23.316;2022-10-22T09:50:57;25.25;;;20.85;;
9773;SDS011;4926;42.670;23.316;2022-10-22T09:53:28;26.02;;;19.23;;
9773;SDS011;4926;42.670;23.316;2022-10-22T09:55:57;23.13;;;18.05;;
9773;SDS011;4926;42.670;23.316;2022-10-22T09:58:25;23.02;;;17.17;;
9773;SDS011;4926;42.670;23.316;2022-10-22T10:00:55;19.63;;;17.17;;
9773;SDS011;4926;42.670;23.316;2022-10-22T10:03:28;20.45;;;16.90;;
9773;SDS011;4926;42.670;23.316;2022-10-22T10:05:58;20.10;;;16.92;;
9773;SDS011;4926;42.670;23.316;2022-10-22T10:08:28;23.02;;;15.82;;
9773;SDS011;4926;42.670;23.316;2022-10-22T10:10:58;21.42;;;16.50;;
9773;SDS011;4926;42.670;23.316;2022-10-22T10:16:25;22.52;;;16.50;;
9773;SDS011;4926;42.670;23.316;2022-10-22T10:19:08;18.98;;;15.65;;
9773;SDS011;4926;42.670;23.316;2022-10-22T10:21:54;21.05;;;16.98;;
9773;SDS011;4926;42.670;23.316;2022-10-22T10:24:30;20.35;;;14.98;;
9773;SDS011;4926;42.670;23.316;2022-10-22T10:27:12;24.30;;;16.42;;
9773;SDS011;4926;42.670;23.316;2022-10-22T10:29:47;19.67;;;15.75;;
9773;SDS011;4926;42.670;23.316;2022-10-22T10:35:17;18.83;;;15.55;;
9773;SDS011;4926;42.670;23.316;2022-10-22T10:37:51;20.40;;;15.00;;
9773;SDS011;4926;42.670;23.316;2022-10-22T10:40:36;21.92;;;15.98;;
9773;SDS011;4926;42.670;23.316;2022-10-22T10:43:12;20.42;;;15.82;;
9773;SDS011;4926;42.670;23.316;2022-10-22T10:45:46;19.10;;;15.40;;
9773;SDS011;4926;42.670;23.316;2022-10-22T10:48:30;19.40;;;14.73;;
9773;SDS011;4926;42.670;23.316;2022-10-22T10:51:09;19.88;;;15.52;;
9773;SDS011;4926;42.670;23.316;2022-10-22T10:53:47;20.98;;;15.32;;
9773;SDS011;4926;42.670;23.316;2022-10-22T10:56:32;18.90;;;14.75;;
9773;SDS011;4926;42.670;23.316;2022-10-22T10:59:08;20.13;;;14.80;;
9773;SDS011;4926;42.670;23.316;2022-10-22T11:01:45;22.05;;;14.85;;
9773;SDS011;4926;42.670;23.316;2022-10-22T11:04:39;20.08;;;14.57;;
9773;SDS011;4926;42.670;23.316;2022-10-22T11:07:27;17.92;;;13.27;;
9773;SDS011;4926;42.670;23.316;2022-10-22T11:10:01;19.95;;;14.65;;
9773;SDS011;4926;42.670;23.316;2022-10-22T11:12:35;17.38;;;14.32;;
9773;SDS011;4926;42.670;23.316;2022-10-22T11:15:22;18.40;;;14.27;;
9773;SDS011;4926;42.670;23.316;2022-10-22T11:17:53;19.20;;;13.88;;
9773;SDS011;4926;42.670;23.316;2022-10-22T11:20:27;21.95;;;15.15;;
9773;SDS011;4926;42.670;23.316;2022-10-22T11:23:12;16.90;;;13.52;;
9773;SDS011;4926;42.670;23.316;2022-10-22T11:25:42;16.65;;;13.20;;
9773;SDS011;4926;42.670;23.316;2022-10-22T11:28:13;16.05;;;12.93;;
9773;SDS011;4926;42.670;23.316;2022-10-22T11:30:49;19.83;;;13.60;;
9773;SDS011;4926;42.670;23.316;2022-10-22T11:33:22;15.55;;;13.73;;
9773;SDS011;4926;42.670;23.316;2022-10-22T11:35:55;19.55;;;12.98;;
9773;SDS011;4926;42.670;23.316;2022-10-22T11:38:26;16.80;;;12.38;;
9773;SDS011;4926;42.670;23.316;2022-10-22T11:40:55;16.27;;;13.13;;
9773;SDS011;4926;42.670;23.316;2022-10-22T11:43:27;18.67;;;12.95;;
9773;SDS011;4926;42.670;23.316;2022-10-22T11:45:57;13.82;;;11.10;;
9773;SDS011;4926;42.670;23.316;2022-10-22T11:48:59;20.15;;;12.43;;
9773;SDS011;4926;42.670;23.316;2022-10-22T11:51:28;13.77;;;11.98;;
9773;SDS011;4926;42.670;23.316;2022-10-22T11:54:01;14.70;;;11.98;;
9773;SDS011;4926;42.670;23.316;2022-10-22T11:56:50;14.50;;;11.82;;
9773;SDS011;4926;42.670;23.316;2022-10-22T11:59:32;12.95;;;11.40;;
9773;SDS011;4926;42.670;23.316;2022-10-22T12:02:19;15.57;;;12.13;;
9773;SDS011;4926;42.670;23.316;2022-10-22T12:04:49;16.02;;;12.15;;
9773;SDS011;4926;42.670;23.316;2022-10-22T12:07:29;16.27;;;11.38;;
9773;SDS011;4926;42.670;23.316;2022-10-22T12:09:59;14.18;;;11.10;;
9773;SDS011;4926;42.670;23.316;2022-10-22T12:12:42;14.88;;;10.75;;
9773;SDS011;4926;42.670;23.316;2022-10-22T12:18:11;14.60;;;10.45;;
9773;SDS011;4926;42.670;23.316;2022-10-22T12:20:39;12.50;;;10.27;;
9773;SDS011;4926;42.670;23.316;2022-10-22T12:23:06;13.07;;;10.52;;
9773;SDS011;4926;42.670;23.316;2022-10-22T12:25:38;11.80;;;10.25;;
9773;SDS011;4926;42.670;23.316;2022-10-22T12:28:09;14.20;;;9.68;;
9773;SDS011;4926;42.670;23.316;2022-10-22T12:30:40;15.27;;;9.98;;
9773;SDS011;4926;42.670;23.316;2022-10-22T12:33:15;11.45;;;10.00;;
9773;SDS011;4926;42.670;23.316;2022-10-22T12:35:48;14.10;;;10.25;;
9773;SDS011;4926;42.670;23.316;2022-10-22T12:38:22;13.95;;;10.18;;
9773;SDS011;4926;42.670;23.316;2022-10-22T12:40:53;12.30;;;9.77;;
9773;SDS011;4926;42.670;23.316;2022-10-22T12:43:26;13.98;;;10.40;;
9773;SDS011;4926;42.670;23.316;2022-10-22T12:45:54;17.13;;;9.63;;
9773;SDS011;4926;42.670;23.316;2022-10-22T12:48:23;14.68;;;9.52;;
9773;SDS011;4926;42.670;23.316;2022-10-22T12:50:52;13.13;;;9.48;;
9773;SDS011;4926;42.670;23.316;2022-10-22T12:53:21;11.75;;;9.80;;
9773;SDS011;4926;42.670;23.316;2022-10-22T12:55:53;13.70;;;9.85;;
9773;SDS011;4926;42.670;23.316;2022-10-22T12:58:21;15.77;;;10.35;;
9773;SDS011;4926;42.670;23.316;2022-10-22T13:00:59;11.98;;;8.73;;
9773;SDS011;4926;42.670;23.316;2022-10-22T13:03:30;11.35;;;9.55;;
9773;SDS011;4926;42.670;23.316;2022-10-22T13:06:20;11.48;;;9.63;;
9773;SDS011;4926;42.670;23.316;2022-10-22T13:08:56;11.98;;;8.98;;
9773;SDS011;4926;42.670;23.316;2022-10-22T13:11:36;12.68;;;9.07;;
9773;SDS011;4926;42.670;23.316;2022-10-22T13:14:13;10.95;;;8.27;;
9773;SDS011;4926;42.670;23.316;2022-10-22T13:19:38;9.85;;;8.55;;
9773;SDS011;4926;42.670;23.316;2022-10-22T13:22:27;13.63;;;8.70;;
9773;SDS011;4926;42.670;23.316;2022-10-22T13:25:03;11.73;;;8.77;;
9773;SDS011;4926;42.670;23.316;2022-10-22T13:27:48;10.27;;;8.23;;
9773;SDS011;4926;42.670;23.316;2022-10-22T13:30:21;12.52;;;8.85;;
9773;SDS011;4926;42.670;23.316;2022-10-22T13:32:50;13.15;;;9.30;;
9773;SDS011;4926;42.670;23.316;2022-10-22T13:35:19;11.32;;;9.13;;
9773;SDS011;4926;42.670;23.316;2022-10-22T13:37:49;11.10;;;9.25;;
9773;SDS011;4926;42.670;23.316;2022-10-22T13:40:16;11.25;;;8.75;;
9773;SDS011;4926;42.670;23.316;2022-10-22T13:42:48;12.43;;;8.27;;
9773;SDS011;4926;42.670;23.316;2022-10-22T13:45:15;13.15;;;8.77;;
9773;SDS011;4926;42.670;23.316;2022-10-22T13:47:44;14.57;;;9.20;;
9773;SDS011;4926;42.670;23.316;2022-10-22T13:50:18;10.38;;;8.45;;
9773;SDS011;4926;42.670;23.316;2022-10-22T13:52:49;9.45;;;8.32;;
9773;SDS011;4926;42.670;23.316;2022-10-22T13:55:20;9.35;;;7.65;;
9773;SDS011;4926;42.670;23.316;2022-10-22T13:57:51;11.85;;;7.72;;
9773;SDS011;4926;42.670;23.316;2022-10-22T14:00:19;11.80;;;8.70;;
9773;SDS011;4926;42.670;23.316;2022-10-22T14:02:47;10.45;;;9.18;;
9773;SDS011;4926;42.670;23.316;2022-10-22T14:05:17;9.20;;;8.27;;
9773;SDS011;4926;42.670;23.316;2022-10-22T14:07:45;11.13;;;8.25;;
9773;SDS011;4926;42.670;23.316;2022-10-22T14:10:15;12.38;;;7.78;;
9773;SDS011;4926;42.670;23.316;2022-10-22T14:12:44;11.90;;;9.27;;
9773;SDS011;4926;42.670;23.316;2022-10-22T14:15:15;10.15;;;8.20;;
9773;SDS011;4926;42.670;23.316;2022-10-22T14:17:45;11.57;;;9.20;;
9773;SDS011;4926;42.670;23.316;2022-10-22T14:23:13;13.27;;;9.80;;
9773;SDS011;4926;42.670;23.316;2022-10-22T14:25:44;14.70;;;9.82;;
9773;SDS011;4926;42.670;23.316;2022-10-22T14:28:11;12.73;;;9.13;;
9773;SDS011;4926;42.670;23.316;2022-10-22T14:30:42;15.52;;;9.90;;
9773;SDS011;4926;42.670;23.316;2022-10-22T14:33:09;9.80;;;8.80;;
9773;SDS011;4926;42.670;23.316;2022-10-22T14:35:40;12.75;;;8.75;;
9773;SDS011;4926;42.670;23.316;2022-10-22T14:38:07;10.48;;;8.68;;
9773;SDS011;4926;42.670;23.316;2022-10-22T14:40:36;13.50;;;8.60;;
9773;SDS011;4926;42.670;23.316;2022-10-22T14:43:08;9.48;;;8.48;;
9773;SDS011;4926;42.670;23.316;2022-10-22T14:45:36;9.70;;;8.70;;
9773;SDS011;4926;42.670;23.316;2022-10-22T14:48:05;9.52;;;8.27;;
9773;SDS011;4926;42.670;23.316;2022-10-22T14:50:32;14.85;;;9.32;;
9773;SDS011;4926;42.670;23.316;2022-10-22T14:52:59;10.75;;;8.73;;
9773;SDS011;4926;42.670;23.316;2022-10-22T14:55:26;10.68;;;9.07;;
9773;SDS011;4926;42.670;23.316;2022-10-22T14:57:53;9.40;;;8.40;;
9773;SDS011;4926;42.670;23.316;2022-10-22T15:00:20;10.38;;;8.20;;
9773;SDS011;4926;42.670;23.316;2022-10-22T15:02:47;13.90;;;8.80;;
9773;SDS011;4926;42.670;23.316;2022-10-22T15:05:15;11.52;;;8.82;;
9773;SDS011;4926;42.670;23.316;2022-10-22T15:07:43;12.93;;;9.40;;
9773;SDS011;4926;42.670;23.316;2022-10-22T15:10:10;15.27;;;10.10;;
9773;SDS011;4926;42.670;23.316;2022-10-22T15:12:37;14.48;;;10.05;;
9773;SDS011;4926;42.670;23.316;2022-10-22T15:15:06;14.60;;;9.65;;
9773;SDS011;4926;42.670;23.316;2022-10-22T15:17:33;16.52;;;9.63;;
9773;SDS011;4926;42.670;23.316;2022-10-22T15:20:00;18.48;;;10.75;;